sensor_id;sensor_type;location;lat;lon;timestamp;temperature;humidity
11934;DHT22;6026;48.784;9.198;2023-06-26T00:01:49;22.50;95.20
11934;DHT22;6026;48.784;9.198;2023-06-26T00:04:15;22.40;95.40
11934;DHT22;6026;48.784;9.198;2023-06-26T00:06:41;22.40;95.60
11934;DHT22;6026;48.784;9.198;2023-06-26T00:09:07;22.30;95.60
11934;DHT22;6026;48.784;9.198;2023-06-26T00:11:33;22.20;95.80
11934;DHT22;6026;48.784;9.198;2023-06-26T00:13:59;22.00;95.90
11934;DHT22;6026;48.784;9.198;2023-06-26T00:16:26;22.00;95.90
11934;DHT22;6026;48.784;9.198;2023-06-26T00:18:52;21.90;96.10
11934;DHT22;6026;48.784;9.198;2023-06-26T00:21:18;21.90;96.30
11934;DHT22;6026;48.784;9.198;2023-06-26T00:23:44;21.90;96.50
11934;DHT22;6026;48.784;9.198;2023-06-26T00:26:11;21.90;96.50
11934;DHT22;6026;48.784;9.198;2023-06-26T00:28:36;21.80;96.70
11934;DHT22;6026;48.784;9.198;2023-06-26T00:31:02;21.90;96.80
11934;DHT22;6026;48.784;9.198;2023-06-26T00:33:27;21.80;96.90
11934;DHT22;6026;48.784;9.198;2023-06-26T00:35:53;21.70;96.90
11934;DHT22;6026;48.784;9.198;2023-06-26T00:38:19;21.60;97.10
11934;DHT22;6026;48.784;9.198;2023-06-26T00:40:44;21.50;97.30
11934;DHT22;6026;48.784;9.198;2023-06-26T00:43:10;21.50;97.40
11934;DHT22;6026;48.784;9.198;2023-06-26T00:45:35;21.50;97.20
11934;DHT22;6026;48.784;9.198;2023-06-26T00:48:02;21.40;98.00
11934;DHT22;6026;48.784;9.198;2023-06-26T00:50:28;21.40;97.70
11934;DHT22;6026;48.784;9.198;2023-06-26T00:52:54;21.40;97.80
11934;DHT22;6026;48.784;9.198;2023-06-26T00:55:22;21.40;97.70
11934;DHT22;6026;48.784;9.198;2023-06-26T00:57:48;21.30;97.90
11934;DHT22;6026;48.784;9.198;2023-06-26T01:00:14;21.10;98.30
11934;DHT22;6026;48.784;9.198;2023-06-26T01:02:40;21.20;98.30
11934;DHT22;6026;48.784;9.198;2023-06-26T01:05:06;21.20;98.30
11934;DHT22;6026;48.784;9.198;2023-06-26T01:07:36;21.00;98.30
11934;DHT22;6026;48.784;9.198;2023-06-26T01:10:06;20.90;98.70
11934;DHT22;6026;48.784;9.198;2023-06-26T01:12:33;20.90;98.80
11934;DHT22;6026;48.784;9.198;2023-06-26T01:14:59;20.90;98.80
11934;DHT22;6026;48.784;9.198;2023-06-26T01:17:26;21.00;98.80
11934;DHT22;6026;48.784;9.198;2023-06-26T01:20:00;21.00;99.10
11934;DHT22;6026;48.784;9.198;2023-06-26T01:25:26;20.80;99.20
11934;DHT22;6026;48.784;9.198;2023-06-26T01:27:55;20.80;99.30
11934;DHT22;6026;48.784;9.198;2023-06-26T01:30:22;20.80;99.40
11934;DHT22;6026;48.784;9.198;2023-06-26T01:32:48;20.80;99.50
11934;DHT22;6026;48.784;9.198;2023-06-26T01:35:15;20.70;99.70
11934;DHT22;6026;48.784;9.198;2023-06-26T01:37:41;20.70;99.80
11934;DHT22;6026;48.784;9.198;2023-06-26T01:40:07;20.60;99.90
11934;DHT22;6026;48.784;9.198;2023-06-26T01:42:33;20.60;99.90
11934;DHT22;6026;48.784;9.198;2023-06-26T01:45:07;20.60;99.90
11934;DHT22;6026;48.784;9.198;2023-06-26T01:47:36;20.60;99.90
11934;DHT22;6026;48.784;9.198;2023-06-26T01:50:07;20.60;99.90
11934;DHT22;6026;48.784;9.198;2023-06-26T01:55:35;20.70;99.90
11934;DHT22;6026;48.784;9.198;2023-06-26T01:58:04;20.70;99.90
11934;DHT22;6026;48.784;9.198;2023-06-26T02:00:31;20.70;99.90
11934;DHT22;6026;48.784;9.198;2023-06-26T02:02:57;20.50;99.90
11934;DHT22;6026;48.784;9.198;2023-06-26T02:05:23;20.50;99.90
11934;DHT22;6026;48.784;9.198;2023-06-26T02:07:49;20.60;99.90
11934;DHT22;6026;48.784;9.198;2023-06-26T02:10:15;20.30;99.90
11934;DHT22;6026;48.784;9.198;2023-06-26T02:12:41;20.40;99.90
11934;DHT22;6026;48.784;9.198;2023-06-26T02:15:07;20.40;99.90
11934;DHT22;6026;48.784;9.198;2023-06-26T02:17:33;20.40;99.90
11934;DHT22;6026;48.784;9.198;2023-06-26T02:19:58;20.60;99.90
11934;DHT22;6026;48.784;9.198;2023-06-26T02:22:24;20.40;99.90
11934;DHT22;6026;48.784;9.198;2023-06-26T02:24:49;20.50;99.90
11934;DHT22;6026;48.784;9.198;2023-06-26T02:27:15;20.30;99.90
11934;DHT22;6026;48.784;9.198;2023-06-26T02:29:41;20.50;99.90
11934;DHT22;6026;48.784;9.198;2023-06-26T02:32:07;20.40;99.90
11934;DHT22;6026;48.784;9.198;2023-06-26T02:34:33;20.30;99.90
11934;DHT22;6026;48.784;9.198;2023-06-26T02:36:59;20.20;99.90
11934;DHT22;6026;48.784;9.198;2023-06-26T02:39:26;20.20;99.90
11934;DHT22;6026;48.784;9.198;2023-06-26T02:41:51;20.10;99.90
11934;DHT22;6026;48.784;9.198;2023-06-26T02:44:17;20.20;99.90
11934;DHT22;6026;48.784;9.198;2023-06-26T02:46:42;20.10;99.90
11934;DHT22;6026;48.784;9.198;2023-06-26T02:49:08;20.10;99.90
11934;DHT22;6026;48.784;9.198;2023-06-26T02:51:34;20.20;99.90
11934;DHT22;6026;48.784;9.198;2023-06-26T02:54:00;20.10;99.90
11934;DHT22;6026;48.784;9.198;2023-06-26T02:56:26;20.00;99.90
11934;DHT22;6026;48.784;9.198;2023-06-26T02:58:55;20.10;99.90
11934;DHT22;6026;48.784;9.198;2023-06-26T03:01:21;20.10;99.90
11934;DHT22;6026;48.784;9.198;2023-06-26T03:03:47;20.00;99.90
11934;DHT22;6026;48.784;9.198;2023-06-26T03:06:12;20.10;99.90
11934;DHT22;6026;48.784;9.198;2023-06-26T03:08:38;20.00;99.90
11934;DHT22;6026;48.784;9.198;2023-06-26T03:11:05;20.00;99.90
11934;DHT22;6026;48.784;9.198;2023-06-26T03:13:32;19.70;99.90
11934;DHT22;6026;48.784;9.198;2023-06-26T03:15:57;19.90;99.90
11934;DHT22;6026;48.784;9.198;2023-06-26T03:18:23;20.10;99.90
11934;DHT22;6026;48.784;9.198;2023-06-26T03:20:48;19.90;99.90
11934;DHT22;6026;48.784;9.198;2023-06-26T03:23:14;19.90;99.90
11934;DHT22;6026;48.784;9.198;2023-06-26T03:25:40;20.00;99.90
11934;DHT22;6026;48.784;9.198;2023-06-26T03:28:06;19.90;99.90
11934;DHT22;6026;48.784;9.198;2023-06-26T03:30:31;19.90;99.90
11934;DHT22;6026;48.784;9.198;2023-06-26T03:32:57;19.90;99.90
11934;DHT22;6026;48.784;9.198;2023-06-26T03:35:22;19.90;99.90
11934;DHT22;6026;48.784;9.198;2023-06-26T03:37:49;20.00;99.90
11934;DHT22;6026;48.784;9.198;2023-06-26T03:40:14;19.90;99.90
11934;DHT22;6026;48.784;9.198;2023-06-26T03:42:40;19.90;99.90
11934;DHT22;6026;48.784;9.198;2023-06-26T03:45:06;19.90;99.90
11934;DHT22;6026;48.784;9.198;2023-06-26T03:47:31;19.90;99.90
11934;DHT22;6026;48.784;9.198;2023-06-26T03:49:57;19.90;99.90
11934;DHT22;6026;48.784;9.198;2023-06-26T03:52:22;19.90;99.90
11934;DHT22;6026;48.784;9.198;2023-06-26T03:54:49;20.00;99.90
11934;DHT22;6026;48.784;9.198;2023-06-26T03:57:14;19.90;99.90
11934;DHT22;6026;48.784;9.198;2023-06-26T03:59:40;19.90;99.90
11934;DHT22;6026;48.784;9.198;2023-06-26T04:02:05;19.90;99.90
11934;DHT22;6026;48.784;9.198;2023-06-26T04:04:31;20.00;99.90
11934;DHT22;6026;48.784;9.198;2023-06-26T04:06:56;20.00;99.90
11934;DHT22;6026;48.784;9.198;2023-06-26T04:09:24;20.00;99.90
11934;DHT22;6026;48.784;9.198;2023-06-26T04:11:50;20.00;99.90
11934;DHT22;6026;48.784;9.198;2023-06-26T04:14:16;20.00;99.90
11934;DHT22;6026;48.784;9.198;2023-06-26T04:16:41;20.10;99.90
11934;DHT22;6026;48.784;9.198;2023-06-26T04:19:07;20.10;99.90
11934;DHT22;6026;48.784;9.198;2023-06-26T04:21:35;20.10;99.90
11934;DHT22;6026;48.784;9.198;2023-06-26T04:24:00;20.20;99.90
11934;DHT22;6026;48.784;9.198;2023-06-26T04:26:26;20.20;99.90
11934;DHT22;6026;48.784;9.198;2023-06-26T04:28:53;20.20;99.90
11934;DHT22;6026;48.784;9.198;2023-06-26T04:31:19;20.20;99.90
11934;DHT22;6026;48.784;9.198;2023-06-26T04:33:44;20.20;99.90
11934;DHT22;6026;48.784;9.198;2023-06-26T04:36:10;20.30;99.90
11934;DHT22;6026;48.784;9.198;2023-06-26T04:38:36;20.20;99.90
11934;DHT22;6026;48.784;9.198;2023-06-26T04:41:02;20.30;99.90
11934;DHT22;6026;48.784;9.198;2023-06-26T04:43:28;20.30;99.90
11934;DHT22;6026;48.784;9.198;2023-06-26T04:45:53;20.30;99.90
11934;DHT22;6026;48.784;9.198;2023-06-26T04:48:19;20.40;99.90
11934;DHT22;6026;48.784;9.198;2023-06-26T04:50:46;20.50;99.90
11934;DHT22;6026;48.784;9.198;2023-06-26T04:53:22;20.40;99.90
11934;DHT22;6026;48.784;9.198;2023-06-26T04:55:49;20.40;99.90
11934;DHT22;6026;48.784;9.198;2023-06-26T04:58:15;20.40;99.90
11934;DHT22;6026;48.784;9.198;2023-06-26T05:00:40;20.50;99.90
11934;DHT22;6026;48.784;9.198;2023-06-26T05:03:11;20.40;99.90
11934;DHT22;6026;48.784;9.198;2023-06-26T05:05:37;20.50;99.90
11934;DHT22;6026;48.784;9.198;2023-06-26T05:08:21;20.50;99.90
11934;DHT22;6026;48.784;9.198;2023-06-26T05:10:47;20.60;99.90
11934;DHT22;6026;48.784;9.198;2023-06-26T05:13:13;20.60;99.90
11934;DHT22;6026;48.784;9.198;2023-06-26T05:15:46;20.60;99.90
11934;DHT22;6026;48.784;9.198;2023-06-26T05:18:12;20.60;99.90
11934;DHT22;6026;48.784;9.198;2023-06-26T05:20:38;20.70;99.90
11934;DHT22;6026;48.784;9.198;2023-06-26T05:23:04;20.70;99.90
11934;DHT22;6026;48.784;9.198;2023-06-26T05:25:30;20.70;99.90
11934;DHT22;6026;48.784;9.198;2023-06-26T05:27:57;20.70;99.90
11934;DHT22;6026;48.784;9.198;2023-06-26T05:30:26;20.80;99.90
11934;DHT22;6026;48.784;9.198;2023-06-26T05:32:53;20.80;99.90
11934;DHT22;6026;48.784;9.198;2023-06-26T05:35:23;20.90;99.90
11934;DHT22;6026;48.784;9.198;2023-06-26T05:37:49;20.90;99.90
11934;DHT22;6026;48.784;9.198;2023-06-26T05:40:16;21.00;99.90
11934;DHT22;6026;48.784;9.198;2023-06-26T05:42:42;21.00;99.90
11934;DHT22;6026;48.784;9.198;2023-06-26T05:45:09;21.10;99.90
11934;DHT22;6026;48.784;9.198;2023-06-26T05:47:35;21.10;99.90
11934;DHT22;6026;48.784;9.198;2023-06-26T05:50:01;21.20;99.90
11934;DHT22;6026;48.784;9.198;2023-06-26T05:52:27;21.30;99.90
11934;DHT22;6026;48.784;9.198;2023-06-26T05:54:53;21.30;99.90
11934;DHT22;6026;48.784;9.198;2023-06-26T05:57:19;21.40;99.90
11934;DHT22;6026;48.784;9.198;2023-06-26T05:59:45;21.50;99.90
11934;DHT22;6026;48.784;9.198;2023-06-26T06:02:12;21.50;99.90
11934;DHT22;6026;48.784;9.198;2023-06-26T06:04:38;21.50;99.90
11934;DHT22;6026;48.784;9.198;2023-06-26T06:07:03;21.70;99.90
11934;DHT22;6026;48.784;9.198;2023-06-26T06:09:29;21.80;99.90
11934;DHT22;6026;48.784;9.198;2023-06-26T06:11:55;21.80;99.90
11934;DHT22;6026;48.784;9.198;2023-06-26T06:14:20;21.90;99.90
11934;DHT22;6026;48.784;9.198;2023-06-26T06:16:46;22.20;99.90
11934;DHT22;6026;48.784;9.198;2023-06-26T06:19:11;22.20;99.90
11934;DHT22;6026;48.784;9.198;2023-06-26T06:21:39;22.20;99.90
11934;DHT22;6026;48.784;9.198;2023-06-26T06:24:04;22.30;99.90
11934;DHT22;6026;48.784;9.198;2023-06-26T06:26:32;22.40;99.90
11934;DHT22;6026;48.784;9.198;2023-06-26T06:28:57;22.70;99.90
11934;DHT22;6026;48.784;9.198;2023-06-26T06:31:23;22.90;99.90
11934;DHT22;6026;48.784;9.198;2023-06-26T06:33:48;23.30;99.90
11934;DHT22;6026;48.784;9.198;2023-06-26T06:36:14;24.00;99.90
11934;DHT22;6026;48.784;9.198;2023-06-26T06:38:43;25.20;99.90
11934;DHT22;6026;48.784;9.198;2023-06-26T06:41:09;27.10;99.90
11934;DHT22;6026;48.784;9.198;2023-06-26T06:43:34;29.10;96.80
11934;DHT22;6026;48.784;9.198;2023-06-26T06:46:01;30.80;95.30
11934;DHT22;6026;48.784;9.198;2023-06-26T06:48:26;32.30;92.90
11934;DHT22;6026;48.784;9.198;2023-06-26T06:50:52;33.60;90.90
11934;DHT22;6026;48.784;9.198;2023-06-26T06:53:18;34.60;89.00
11934;DHT22;6026;48.784;9.198;2023-06-26T06:55:46;35.70;85.20
11934;DHT22;6026;48.784;9.198;2023-06-26T06:58:11;36.70;82.70
11934;DHT22;6026;48.784;9.198;2023-06-26T07:00:37;37.40;80.70
11934;DHT22;6026;48.784;9.198;2023-06-26T07:03:03;37.70;79.00
11934;DHT22;6026;48.784;9.198;2023-06-26T07:05:29;38.10;78.50
11934;DHT22;6026;48.784;9.198;2023-06-26T07:07:55;38.70;76.50
11934;DHT22;6026;48.784;9.198;2023-06-26T07:10:20;39.50;74.80
11934;DHT22;6026;48.784;9.198;2023-06-26T07:12:46;39.80;74.10
11934;DHT22;6026;48.784;9.198;2023-06-26T07:15:12;40.10;72.90
11934;DHT22;6026;48.784;9.198;2023-06-26T07:17:38;40.80;72.10
11934;DHT22;6026;48.784;9.198;2023-06-26T07:20:04;40.70;71.20
11934;DHT22;6026;48.784;9.198;2023-06-26T07:22:32;40.40;71.00
11934;DHT22;6026;48.784;9.198;2023-06-26T07:24:58;40.40;70.30
11934;DHT22;6026;48.784;9.198;2023-06-26T07:27:23;40.90;69.70
11934;DHT22;6026;48.784;9.198;2023-06-26T07:29:49;41.00;69.10
11934;DHT22;6026;48.784;9.198;2023-06-26T07:32:15;41.20;68.80
11934;DHT22;6026;48.784;9.198;2023-06-26T07:34:40;41.30;68.60
11934;DHT22;6026;48.784;9.198;2023-06-26T07:37:06;41.70;67.10
11934;DHT22;6026;48.784;9.198;2023-06-26T07:39:31;41.90;66.50
11934;DHT22;6026;48.784;9.198;2023-06-26T07:41:57;41.80;67.30
11934;DHT22;6026;48.784;9.198;2023-06-26T07:44:24;41.90;65.40
11934;DHT22;6026;48.784;9.198;2023-06-26T07:46:50;42.20;65.10
11934;DHT22;6026;48.784;9.198;2023-06-26T07:49:16;42.30;65.50
11934;DHT22;6026;48.784;9.198;2023-06-26T07:51:41;41.90;65.40
11934;DHT22;6026;48.784;9.198;2023-06-26T07:54:07;41.70;66.30
11934;DHT22;6026;48.784;9.198;2023-06-26T07:57:02;42.20;64.70
11934;DHT22;6026;48.784;9.198;2023-06-26T07:59:29;43.00;63.30
11934;DHT22;6026;48.784;9.198;2023-06-26T08:01:56;42.80;63.30
11934;DHT22;6026;48.784;9.198;2023-06-26T08:04:24;43.30;63.20
11934;DHT22;6026;48.784;9.198;2023-06-26T08:06:54;42.90;62.20
11934;DHT22;6026;48.784;9.198;2023-06-26T08:09:21;43.30;61.90
11934;DHT22;6026;48.784;9.198;2023-06-26T08:11:47;43.30;62.30
11934;DHT22;6026;48.784;9.198;2023-06-26T08:14:13;44.10;60.00
11934;DHT22;6026;48.784;9.198;2023-06-26T08:16:39;45.00;59.30
11934;DHT22;6026;48.784;9.198;2023-06-26T08:19:05;44.40;58.10
11934;DHT22;6026;48.784;9.198;2023-06-26T08:21:31;44.10;59.20
11934;DHT22;6026;48.784;9.198;2023-06-26T08:23:56;44.10;59.50
11934;DHT22;6026;48.784;9.198;2023-06-26T08:26:22;44.10;59.10
11934;DHT22;6026;48.784;9.198;2023-06-26T08:28:47;44.20;59.20
11934;DHT22;6026;48.784;9.198;2023-06-26T08:31:13;44.10;59.60
11934;DHT22;6026;48.784;9.198;2023-06-26T08:33:38;44.00;58.80
11934;DHT22;6026;48.784;9.198;2023-06-26T08:36:04;44.00;58.70
11934;DHT22;6026;48.784;9.198;2023-06-26T08:38:29;44.10;59.00
11934;DHT22;6026;48.784;9.198;2023-06-26T08:40:55;44.40;58.50
11934;DHT22;6026;48.784;9.198;2023-06-26T08:43:20;44.50;58.80
11934;DHT22;6026;48.784;9.198;2023-06-26T08:45:47;44.80;58.40
11934;DHT22;6026;48.784;9.198;2023-06-26T08:48:17;45.80;56.20
11934;DHT22;6026;48.784;9.198;2023-06-26T08:50:44;45.80;56.20
11934;DHT22;6026;48.784;9.198;2023-06-26T08:53:40;45.50;56.70
11934;DHT22;6026;48.784;9.198;2023-06-26T08:56:08;45.20;56.30
11934;DHT22;6026;48.784;9.198;2023-06-26T08:58:36;44.60;57.00
11934;DHT22;6026;48.784;9.198;2023-06-26T09:01:04;44.80;57.10
11934;DHT22;6026;48.784;9.198;2023-06-26T09:03:30;45.00;57.30
11934;DHT22;6026;48.784;9.198;2023-06-26T09:05:56;44.80;55.90
11934;DHT22;6026;48.784;9.198;2023-06-26T09:08:21;44.50;56.50
11934;DHT22;6026;48.784;9.198;2023-06-26T09:10:47;44.80;57.00
11934;DHT22;6026;48.784;9.198;2023-06-26T09:13:12;45.00;56.50
11934;DHT22;6026;48.784;9.198;2023-06-26T09:15:41;45.30;56.90
11934;DHT22;6026;48.784;9.198;2023-06-26T09:18:07;45.70;56.30
11934;DHT22;6026;48.784;9.198;2023-06-26T09:20:33;45.50;56.40
11934;DHT22;6026;48.784;9.198;2023-06-26T09:23:00;45.20;56.10
11934;DHT22;6026;48.784;9.198;2023-06-26T09:25:26;45.00;55.60
11934;DHT22;6026;48.784;9.198;2023-06-26T09:27:53;44.70;55.60
11934;DHT22;6026;48.784;9.198;2023-06-26T09:30:19;44.80;56.20
11934;DHT22;6026;48.784;9.198;2023-06-26T09:32:45;44.30;56.10
11934;DHT22;6026;48.784;9.198;2023-06-26T09:35:11;43.90;56.90
11934;DHT22;6026;48.784;9.198;2023-06-26T09:37:37;43.30;57.40
11934;DHT22;6026;48.784;9.198;2023-06-26T09:40:03;42.50;57.90
11934;DHT22;6026;48.784;9.198;2023-06-26T09:42:30;42.40;58.40
11934;DHT22;6026;48.784;9.198;2023-06-26T09:44:55;42.10;58.40
11934;DHT22;6026;48.784;9.198;2023-06-26T09:47:21;41.70;59.30
11934;DHT22;6026;48.784;9.198;2023-06-26T09:49:47;41.60;59.60
11934;DHT22;6026;48.784;9.198;2023-06-26T09:52:16;41.60;59.80
11934;DHT22;6026;48.784;9.198;2023-06-26T09:54:42;41.70;60.50
11934;DHT22;6026;48.784;9.198;2023-06-26T09:57:17;41.30;59.60
11934;DHT22;6026;48.784;9.198;2023-06-26T09:59:44;40.90;60.20
11934;DHT22;6026;48.784;9.198;2023-06-26T10:02:13;40.10;61.60
11934;DHT22;6026;48.784;9.198;2023-06-26T10:04:38;39.80;62.50
11934;DHT22;6026;48.784;9.198;2023-06-26T10:07:11;39.90;62.50
11934;DHT22;6026;48.784;9.198;2023-06-26T10:09:44;39.60;62.60
11934;DHT22;6026;48.784;9.198;2023-06-26T10:12:19;39.60;62.80
11934;DHT22;6026;48.784;9.198;2023-06-26T10:14:45;39.30;63.60
11934;DHT22;6026;48.784;9.198;2023-06-26T10:17:13;39.70;63.40
11934;DHT22;6026;48.784;9.198;2023-06-26T10:19:43;40.20;63.30
11934;DHT22;6026;48.784;9.198;2023-06-26T10:22:09;40.40;62.60
11934;DHT22;6026;48.784;9.198;2023-06-26T10:24:37;40.80;62.60
11934;DHT22;6026;48.784;9.198;2023-06-26T10:27:33;40.90;62.60
11934;DHT22;6026;48.784;9.198;2023-06-26T10:30:03;40.60;62.40
11934;DHT22;6026;48.784;9.198;2023-06-26T10:32:29;40.00;63.60
11934;DHT22;6026;48.784;9.198;2023-06-26T10:34:56;39.10;65.60
11934;DHT22;6026;48.784;9.198;2023-06-26T10:37:49;38.10;67.20
11934;DHT22;6026;48.784;9.198;2023-06-26T10:40:25;37.00;69.50
11934;DHT22;6026;48.784;9.198;2023-06-26T10:42:51;35.80;71.20
11934;DHT22;6026;48.784;9.198;2023-06-26T10:45:19;35.80;71.80
11934;DHT22;6026;48.784;9.198;2023-06-26T10:47:52;35.60;73.40
11934;DHT22;6026;48.784;9.198;2023-06-26T10:50:24;35.20;73.20
11934;DHT22;6026;48.784;9.198;2023-06-26T10:55:35;34.90;72.70
11934;DHT22;6026;48.784;9.198;2023-06-26T10:58:01;35.40;72.70
11934;DHT22;6026;48.784;9.198;2023-06-26T11:00:28;36.00;71.60
11934;DHT22;6026;48.784;9.198;2023-06-26T11:02:54;36.40;71.40
11934;DHT22;6026;48.784;9.198;2023-06-26T11:05:32;37.00;69.70
11934;DHT22;6026;48.784;9.198;2023-06-26T11:08:07;37.40;69.40
11934;DHT22;6026;48.784;9.198;2023-06-26T11:10:53;37.70;69.70
11934;DHT22;6026;48.784;9.198;2023-06-26T11:13:19;38.00;69.20
11934;DHT22;6026;48.784;9.198;2023-06-26T11:15:46;37.80;68.30
11934;DHT22;6026;48.784;9.198;2023-06-26T11:18:12;38.00;68.90
11934;DHT22;6026;48.784;9.198;2023-06-26T11:20:38;38.10;68.70
11934;DHT22;6026;48.784;9.198;2023-06-26T11:23:04;38.20;68.80
11934;DHT22;6026;48.784;9.198;2023-06-26T11:25:34;37.70;69.10
11934;DHT22;6026;48.784;9.198;2023-06-26T11:28:00;37.30;70.40
11934;DHT22;6026;48.784;9.198;2023-06-26T11:30:26;36.80;71.70
11934;DHT22;6026;48.784;9.198;2023-06-26T11:32:52;37.10;71.30
11934;DHT22;6026;48.784;9.198;2023-06-26T11:35:27;37.10;71.20
11934;DHT22;6026;48.784;9.198;2023-06-26T11:38:00;37.20;71.20
11934;DHT22;6026;48.784;9.198;2023-06-26T11:40:29;37.50;71.00
11934;DHT22;6026;48.784;9.198;2023-06-26T11:43:00;37.60;70.00
11934;DHT22;6026;48.784;9.198;2023-06-26T11:45:33;37.60;71.00
11934;DHT22;6026;48.784;9.198;2023-06-26T11:48:00;37.90;71.20
11934;DHT22;6026;48.784;9.198;2023-06-26T11:50:26;37.70;70.30
11934;DHT22;6026;48.784;9.198;2023-06-26T11:52:53;37.30;70.20
11934;DHT22;6026;48.784;9.198;2023-06-26T11:55:20;37.30;71.60
11934;DHT22;6026;48.784;9.198;2023-06-26T11:57:49;37.30;70.90
11934;DHT22;6026;48.784;9.198;2023-06-26T12:00:16;37.10;71.30
11934;DHT22;6026;48.784;9.198;2023-06-26T12:02:44;37.00;72.20
11934;DHT22;6026;48.784;9.198;2023-06-26T12:05:11;36.50;73.70
11934;DHT22;6026;48.784;9.198;2023-06-26T12:07:37;36.20;75.60
11934;DHT22;6026;48.784;9.198;2023-06-26T12:10:04;35.80;77.10
11934;DHT22;6026;48.784;9.198;2023-06-26T12:12:31;35.20;78.00
11934;DHT22;6026;48.784;9.198;2023-06-26T12:14:57;34.70;79.00
11934;DHT22;6026;48.784;9.198;2023-06-26T12:17:24;34.10;80.50
11934;DHT22;6026;48.784;9.198;2023-06-26T12:19:52;34.00;81.90
11934;DHT22;6026;48.784;9.198;2023-06-26T12:22:18;33.90;82.90
11934;DHT22;6026;48.784;9.198;2023-06-26T12:24:45;34.10;82.50
11934;DHT22;6026;48.784;9.198;2023-06-26T12:27:13;34.00;82.10
11934;DHT22;6026;48.784;9.198;2023-06-26T12:29:50;34.30;82.50
11934;DHT22;6026;48.784;9.198;2023-06-26T12:32:17;34.40;82.10
11934;DHT22;6026;48.784;9.198;2023-06-26T12:34:48;34.40;81.90
11934;DHT22;6026;48.784;9.198;2023-06-26T12:37:13;34.20;82.40
11934;DHT22;6026;48.784;9.198;2023-06-26T12:39:56;34.20;83.30
11934;DHT22;6026;48.784;9.198;2023-06-26T12:42:24;34.30;83.30
11934;DHT22;6026;48.784;9.198;2023-06-26T12:44:51;34.20;83.20
11934;DHT22;6026;48.784;9.198;2023-06-26T12:47:17;34.40;83.40
11934;DHT22;6026;48.784;9.198;2023-06-26T12:49:45;34.40;83.40
11934;DHT22;6026;48.784;9.198;2023-06-26T12:52:12;34.30;82.40
11934;DHT22;6026;48.784;9.198;2023-06-26T12:54:40;34.40;82.40
11934;DHT22;6026;48.784;9.198;2023-06-26T12:57:06;34.20;81.70
11934;DHT22;6026;48.784;9.198;2023-06-26T12:59:33;34.20;82.70
11934;DHT22;6026;48.784;9.198;2023-06-26T13:01:59;34.10;82.40
11934;DHT22;6026;48.784;9.198;2023-06-26T13:04:25;33.80;82.90
11934;DHT22;6026;48.784;9.198;2023-06-26T13:06:52;33.80;82.50
11934;DHT22;6026;48.784;9.198;2023-06-26T13:09:20;34.00;83.00
11934;DHT22;6026;48.784;9.198;2023-06-26T13:11:46;33.80;83.80
11934;DHT22;6026;48.784;9.198;2023-06-26T13:14:11;33.70;82.80
11934;DHT22;6026;48.784;9.198;2023-06-26T13:16:37;33.50;84.10
11934;DHT22;6026;48.784;9.198;2023-06-26T13:19:03;33.50;83.50
11934;DHT22;6026;48.784;9.198;2023-06-26T13:21:28;33.60;83.30
11934;DHT22;6026;48.784;9.198;2023-06-26T13:23:55;33.50;82.70
11934;DHT22;6026;48.784;9.198;2023-06-26T13:26:20;33.30;83.40
11934;DHT22;6026;48.784;9.198;2023-06-26T13:28:47;33.10;82.70
11934;DHT22;6026;48.784;9.198;2023-06-26T13:31:13;33.10;83.50
11934;DHT22;6026;48.784;9.198;2023-06-26T13:33:39;32.90;84.00
11934;DHT22;6026;48.784;9.198;2023-06-26T13:36:04;33.00;83.50
11934;DHT22;6026;48.784;9.198;2023-06-26T13:38:33;33.20;83.90
11934;DHT22;6026;48.784;9.198;2023-06-26T13:40:59;33.10;83.60
11934;DHT22;6026;48.784;9.198;2023-06-26T13:43:26;33.10;82.50
11934;DHT22;6026;48.784;9.198;2023-06-26T13:45:52;33.00;81.80
11934;DHT22;6026;48.784;9.198;2023-06-26T13:48:18;32.90;82.20
11934;DHT22;6026;48.784;9.198;2023-06-26T13:50:45;32.70;81.90
11934;DHT22;6026;48.784;9.198;2023-06-26T13:53:11;32.70;81.70
11934;DHT22;6026;48.784;9.198;2023-06-26T13:55:36;32.80;81.40
11934;DHT22;6026;48.784;9.198;2023-06-26T13:58:06;32.70;80.40
11934;DHT22;6026;48.784;9.198;2023-06-26T14:00:33;32.70;80.40
11934;DHT22;6026;48.784;9.198;2023-06-26T14:03:03;32.70;80.00
11934;DHT22;6026;48.784;9.198;2023-06-26T14:05:33;32.70;79.50
11934;DHT22;6026;48.784;9.198;2023-06-26T14:07:58;32.50;78.30
11934;DHT22;6026;48.784;9.198;2023-06-26T14:10:24;32.40;78.00
11934;DHT22;6026;48.784;9.198;2023-06-26T14:12:50;32.50;78.50
11934;DHT22;6026;48.784;9.198;2023-06-26T14:15:16;32.40;78.20
11934;DHT22;6026;48.784;9.198;2023-06-26T14:17:42;32.50;78.40
11934;DHT22;6026;48.784;9.198;2023-06-26T14:20:08;32.40;77.50
11934;DHT22;6026;48.784;9.198;2023-06-26T14:22:42;32.30;77.90
11934;DHT22;6026;48.784;9.198;2023-06-26T14:25:09;32.30;76.90
11934;DHT22;6026;48.784;9.198;2023-06-26T14:27:36;32.30;76.60
11934;DHT22;6026;48.784;9.198;2023-06-26T14:30:05;32.40;77.40
11934;DHT22;6026;48.784;9.198;2023-06-26T14:32:31;32.50;77.70
11934;DHT22;6026;48.784;9.198;2023-06-26T14:34:57;32.30;77.40
11934;DHT22;6026;48.784;9.198;2023-06-26T14:37:23;32.20;77.40
11934;DHT22;6026;48.784;9.198;2023-06-26T14:39:49;32.10;78.30
11934;DHT22;6026;48.784;9.198;2023-06-26T14:42:15;32.10;78.40
11934;DHT22;6026;48.784;9.198;2023-06-26T14:44:40;32.00;77.50
11934;DHT22;6026;48.784;9.198;2023-06-26T14:47:06;31.90;78.60
11934;DHT22;6026;48.784;9.198;2023-06-26T14:49:32;31.80;78.10
11934;DHT22;6026;48.784;9.198;2023-06-26T14:51:57;31.70;78.10
11934;DHT22;6026;48.784;9.198;2023-06-26T14:54:23;31.50;78.50
11934;DHT22;6026;48.784;9.198;2023-06-26T14:56:48;31.60;78.60
11934;DHT22;6026;48.784;9.198;2023-06-26T14:59:14;31.60;78.50
11934;DHT22;6026;48.784;9.198;2023-06-26T15:01:40;31.50;79.20
11934;DHT22;6026;48.784;9.198;2023-06-26T15:04:06;31.50;80.50
11934;DHT22;6026;48.784;9.198;2023-06-26T15:06:32;31.50;80.60
11934;DHT22;6026;48.784;9.198;2023-06-26T15:08:58;31.30;80.40
11934;DHT22;6026;48.784;9.198;2023-06-26T15:11:24;31.20;80.80
11934;DHT22;6026;48.784;9.198;2023-06-26T15:13:49;31.00;81.20
11934;DHT22;6026;48.784;9.198;2023-06-26T15:16:15;31.10;81.50
11934;DHT22;6026;48.784;9.198;2023-06-26T15:18:41;31.20;81.70
11934;DHT22;6026;48.784;9.198;2023-06-26T15:21:07;31.20;81.90
11934;DHT22;6026;48.784;9.198;2023-06-26T15:23:33;31.00;81.60
11934;DHT22;6026;48.784;9.198;2023-06-26T15:25:59;31.20;81.80
11934;DHT22;6026;48.784;9.198;2023-06-26T15:28:24;31.10;81.90
11934;DHT22;6026;48.784;9.198;2023-06-26T15:30:50;31.00;81.80
11934;DHT22;6026;48.784;9.198;2023-06-26T15:33:15;30.90;81.80
11934;DHT22;6026;48.784;9.198;2023-06-26T15:35:41;30.70;81.50
11934;DHT22;6026;48.784;9.198;2023-06-26T15:38:06;30.50;81.30
11934;DHT22;6026;48.784;9.198;2023-06-26T15:40:32;30.40;82.00
11934;DHT22;6026;48.784;9.198;2023-06-26T15:42:58;30.30;81.90
11934;DHT22;6026;48.784;9.198;2023-06-26T15:45:23;30.30;82.90
11934;DHT22;6026;48.784;9.198;2023-06-26T15:47:52;30.20;81.90
11934;DHT22;6026;48.784;9.198;2023-06-26T15:50:18;30.20;81.80
11934;DHT22;6026;48.784;9.198;2023-06-26T15:52:48;30.20;81.70